sensor_id;sensor_type;location;lat;lon;timestamp;P1;P2;P0
73631;PMS5003;61924;53.268;-2.458;2023-03-01T00:01:06;19;18;
73631;PMS5003;61924;53.268;-2.458;2023-03-01T00:03:30;20;19;
73631;PMS5003;61924;53.268;-2.458;2023-03-01T00:05:56;16;15;
73631;PMS5003;61924;53.268;-2.458;2023-03-01T00:08:21;19;18;
73631;PMS5003;61924;53.268;-2.458;2023-03-01T00:10:46;17;15;
73631;PMS5003;61924;53.268;-2.458;2023-03-01T00:13:11;21;19;
73631;PMS5003;61924;53.268;-2.458;2023-03-01T00:15:38;15;14;
73631;PMS5003;61924;53.268;-2.458;2023-03-01T00:18:03;15;13;
73631;PMS5003;61924;53.268;-2.458;2023-03-01T00:20:28;18;15;
73631;PMS5003;61924;53.268;-2.458;2023-03-01T00:22:54;15;13;
73631;PMS5003;61924;53.268;-2.458;2023-03-01T00:25:19;21;18;
73631;PMS5003;61924;53.268;-2.458;2023-03-01T00:27:46;13;13;
73631;PMS5003;61924;53.268;-2.458;2023-03-01T00:30:11;15;14;
73631;PMS5003;61924;53.268;-2.458;2023-03-01T00:32:36;19;17;
73631;PMS5003;61924;53.268;-2.458;2023-03-01T00:35:01;14;13;
73631;PMS5003;61924;53.268;-2.458;2023-03-01T00:37:26;15;15;
73631;PMS5003;61924;53.268;-2.458;2023-03-01T00:39:52;17;15;
73631;PMS5003;61924;53.268;-2.458;2023-03-01T00:42:17;12;12;
73631;PMS5003;61924;53.268;-2.458;2023-03-01T00:44:43;8;8;
73631;PMS5003;61924;53.268;-2.458;2023-03-01T00:47:08;15;14;
73631;PMS5003;61924;53.268;-2.458;2023-03-01T00:49:33;14;13;
73631;PMS5003;61924;53.268;-2.458;2023-03-01T00:51:59;12;12;
73631;PMS5003;61924;53.268;-2.458;2023-03-01T00:54:24;12;11;
73631;PMS5003;61924;53.268;-2.458;2023-03-01T00:56:49;13;11;
73631;PMS5003;61924;53.268;-2.458;2023-03-01T00:59:14;14;14;
73631;PMS5003;61924;53.268;-2.458;2023-03-01T01:01:40;11;10;
73631;PMS5003;61924;53.268;-2.458;2023-03-01T01:04:06;12;12;
73631;PMS5003;61924;53.268;-2.458;2023-03-01T01:06:31;15;15;
73631;PMS5003;61924;53.268;-2.458;2023-03-01T01:08:56;11;11;
73631;PMS5003;61924;53.268;-2.458;2023-03-01T01:11:22;9;9;
73631;PMS5003;61924;53.268;-2.458;2023-03-01T01:13:47;6;6;
73631;PMS5003;61924;53.268;-2.458;2023-03-01T01:16:13;6;6;
73631;PMS5003;61924;53.268;-2.458;2023-03-01T01:18:37;7;7;
73631;PMS5003;61924;53.268;-2.458;2023-03-01T01:21:04;6;5;
73631;PMS5003;61924;53.268;-2.458;2023-03-01T01:23:29;8;5;
73631;PMS5003;61924;53.268;-2.458;2023-03-01T01:25:55;6;5;
73631;PMS5003;61924;53.268;-2.458;2023-03-01T01:28:20;8;8;
73631;PMS5003;61924;53.268;-2.458;2023-03-01T01:30:46;8;7;
73631;PMS5003;61924;53.268;-2.458;2023-03-01T01:33:11;6;6;
73631;PMS5003;61924;53.268;-2.458;2023-03-01T01:35:37;6;5;
73631;PMS5003;61924;53.268;-2.458;2023-03-01T01:38:02;6;6;
73631;PMS5003;61924;53.268;-2.458;2023-03-01T01:40:28;5;5;
73631;PMS5003;61924;53.268;-2.458;2023-03-01T01:42:53;5;5;
73631;PMS5003;61924;53.268;-2.458;2023-03-01T01:45:24;7;6;
73631;PMS5003;61924;53.268;-2.458;2023-03-01T01:47:44;6;5;
73631;PMS5003;61924;53.268;-2.458;2023-03-01T01:50:09;3;3;
73631;PMS5003;61924;53.268;-2.458;2023-03-01T01:52:34;5;5;
73631;PMS5003;61924;53.268;-2.458;2023-03-01T01:55:00;6;6;
73631;PMS5003;61924;53.268;-2.458;2023-03-01T01:57:25;6;6;
73631;PMS5003;61924;53.268;-2.458;2023-03-01T01:59:51;7;7;
73631;PMS5003;61924;53.268;-2.458;2023-03-01T02:02:15;4;4;
73631;PMS5003;61924;53.268;-2.458;2023-03-01T02:04:41;7;6;
73631;PMS5003;61924;53.268;-2.458;2023-03-01T02:07:09;7;7;
73631;PMS5003;61924;53.268;-2.458;2023-03-01T02:09:32;6;5;
73631;PMS5003;61924;53.268;-2.458;2023-03-01T02:11:57;5;4;
73631;PMS5003;61924;53.268;-2.458;2023-03-01T02:14:23;4;4;
73631;PMS5003;61924;53.268;-2.458;2023-03-01T02:16:49;4;4;
73631;PMS5003;61924;53.268;-2.458;2023-03-01T02:19:17;5;5;
73631;PMS5003;61924;53.268;-2.458;2023-03-01T02:21:42;7;6;
73631;PMS5003;61924;53.268;-2.458;2023-03-01T02:24:05;5;4;
73631;PMS5003;61924;53.268;-2.458;2023-03-01T02:26:31;3;3;
73631;PMS5003;61924;53.268;-2.458;2023-03-01T02:28:55;5;5;
73631;PMS5003;61924;53.268;-2.458;2023-03-01T02:31:21;7;6;
73631;PMS5003;61924;53.268;-2.458;2023-03-01T02:33:47;5;4;
73631;PMS5003;61924;53.268;-2.458;2023-03-01T02:36:14;3;3;
73631;PMS5003;61924;53.268;-2.458;2023-03-01T02:38:37;4;4;
73631;PMS5003;61924;53.268;-2.458;2023-03-01T02:41:03;3;3;
73631;PMS5003;61924;53.268;-2.458;2023-03-01T02:43:29;4;4;
73631;PMS5003;61924;53.268;-2.458;2023-03-01T02:45:56;5;4;
73631;PMS5003;61924;53.268;-2.458;2023-03-01T02:48:19;6;5;
73631;PMS5003;61924;53.268;-2.458;2023-03-01T02:50:51;5;4;
73631;PMS5003;61924;53.268;-2.458;2023-03-01T02:53:12;3;3;
73631;PMS5003;61924;53.268;-2.458;2023-03-01T02:55:36;3;3;
73631;PMS5003;61924;53.268;-2.458;2023-03-01T02:58:02;4;4;
73631;PMS5003;61924;53.268;-2.458;2023-03-01T03:00:28;3;3;
73631;PMS5003;61924;53.268;-2.458;2023-03-01T03:02:53;5;4;
73631;PMS5003;61924;53.268;-2.458;2023-03-01T03:05:19;5;5;
73631;PMS5003;61924;53.268;-2.458;2023-03-01T03:07:44;2;2;
73631;PMS5003;61924;53.268;-2.458;2023-03-01T03:10:10;4;4;
73631;PMS5003;61924;53.268;-2.458;2023-03-01T03:12:34;5;3;
73631;PMS5003;61924;53.268;-2.458;2023-03-01T03:14:59;2;2;
73631;PMS5003;61924;53.268;-2.458;2023-03-01T03:17:24;5;4;
73631;PMS5003;61924;53.268;-2.458;2023-03-01T03:19:50;8;5;
73631;PMS5003;61924;53.268;-2.458;2023-03-01T03:22:15;6;6;
73631;PMS5003;61924;53.268;-2.458;2023-03-01T03:24:40;3;3;
73631;PMS5003;61924;53.268;-2.458;2023-03-01T03:27:07;7;5;
73631;PMS5003;61924;53.268;-2.458;2023-03-01T03:29:31;6;6;
73631;PMS5003;61924;53.268;-2.458;2023-03-01T03:31:57;5;5;
73631;PMS5003;61924;53.268;-2.458;2023-03-01T03:34:22;7;5;
73631;PMS5003;61924;53.268;-2.458;2023-03-01T03:36:48;4;3;
73631;PMS5003;61924;53.268;-2.458;2023-03-01T03:39:13;4;4;
73631;PMS5003;61924;53.268;-2.458;2023-03-01T03:41:38;4;4;
73631;PMS5003;61924;53.268;-2.458;2023-03-01T03:44:04;4;4;
73631;PMS5003;61924;53.268;-2.458;2023-03-01T03:46:30;8;7;
73631;PMS5003;61924;53.268;-2.458;2023-03-01T03:48:55;2;2;
73631;PMS5003;61924;53.268;-2.458;2023-03-01T03:51:21;4;4;
73631;PMS5003;61924;53.268;-2.458;2023-03-01T03:53:46;5;4;
73631;PMS5003;61924;53.268;-2.458;2023-03-01T03:56:12;5;4;
73631;PMS5003;61924;53.268;-2.458;2023-03-01T03:58:38;7;7;
73631;PMS5003;61924;53.268;-2.458;2023-03-01T04:01:03;7;6;
73631;PMS5003;61924;53.268;-2.458;2023-03-01T04:03:29;4;4;
73631;PMS5003;61924;53.268;-2.458;2023-03-01T04:05:56;5;5;
73631;PMS5003;61924;53.268;-2.458;2023-03-01T04:08:20;4;4;
73631;PMS5003;61924;53.268;-2.458;2023-03-01T04:10:46;3;3;
73631;PMS5003;61924;53.268;-2.458;2023-03-01T04:13:11;3;3;
73631;PMS5003;61924;53.268;-2.458;2023-03-01T04:15:37;4;4;
73631;PMS5003;61924;53.268;-2.458;2023-03-01T04:18:02;1;1;
73631;PMS5003;61924;53.268;-2.458;2023-03-01T04:20:28;3;3;
73631;PMS5003;61924;53.268;-2.458;2023-03-01T04:22:56;6;6;
73631;PMS5003;61924;53.268;-2.458;2023-03-01T04:25:18;6;6;
73631;PMS5003;61924;53.268;-2.458;2023-03-01T04:27:44;7;7;
73631;PMS5003;61924;53.268;-2.458;2023-03-01T04:30:09;6;5;
73631;PMS5003;61924;53.268;-2.458;2023-03-01T04:32:35;9;9;
73631;PMS5003;61924;53.268;-2.458;2023-03-01T04:35:00;12;12;
73631;PMS5003;61924;53.268;-2.458;2023-03-01T04:37:26;10;10;
73631;PMS5003;61924;53.268;-2.458;2023-03-01T04:39:51;10;10;
73631;PMS5003;61924;53.268;-2.458;2023-03-01T04:42:16;14;14;
73631;PMS5003;61924;53.268;-2.458;2023-03-01T04:44:42;13;13;
73631;PMS5003;61924;53.268;-2.458;2023-03-01T04:47:07;14;14;
73631;PMS5003;61924;53.268;-2.458;2023-03-01T04:49:33;15;14;
73631;PMS5003;61924;53.268;-2.458;2023-03-01T04:51:58;12;11;
73631;PMS5003;61924;53.268;-2.458;2023-03-01T04:54:24;10;10;
73631;PMS5003;61924;53.268;-2.458;2023-03-01T04:56:49;12;11;
73631;PMS5003;61924;53.268;-2.458;2023-03-01T04:59:15;14;14;
73631;PMS5003;61924;53.268;-2.458;2023-03-01T05:01:40;16;16;
73631;PMS5003;61924;53.268;-2.458;2023-03-01T05:04:05;13;12;
73631;PMS5003;61924;53.268;-2.458;2023-03-01T05:06:31;14;14;
73631;PMS5003;61924;53.268;-2.458;2023-03-01T05:08:56;14;13;
73631;PMS5003;61924;53.268;-2.458;2023-03-01T05:11:21;13;12;
73631;PMS5003;61924;53.268;-2.458;2023-03-01T05:13:47;13;13;
73631;PMS5003;61924;53.268;-2.458;2023-03-01T05:16:12;13;13;
73631;PMS5003;61924;53.268;-2.458;2023-03-01T05:18:38;12;10;
73631;PMS5003;61924;53.268;-2.458;2023-03-01T05:21:04;13;12;
73631;PMS5003;61924;53.268;-2.458;2023-03-01T05:23:29;13;11;
73631;PMS5003;61924;53.268;-2.458;2023-03-01T05:25:56;12;12;
73631;PMS5003;61924;53.268;-2.458;2023-03-01T05:28:20;11;10;
73631;PMS5003;61924;53.268;-2.458;2023-03-01T05:30:45;12;11;
73631;PMS5003;61924;53.268;-2.458;2023-03-01T05:33:10;11;10;
73631;PMS5003;61924;53.268;-2.458;2023-03-01T05:35:36;12;11;
73631;PMS5003;61924;53.268;-2.458;2023-03-01T05:38:02;11;11;
73631;PMS5003;61924;53.268;-2.458;2023-03-01T05:40:27;8;8;
73631;PMS5003;61924;53.268;-2.458;2023-03-01T05:42:53;9;9;
73631;PMS5003;61924;53.268;-2.458;2023-03-01T05:45:18;11;11;
73631;PMS5003;61924;53.268;-2.458;2023-03-01T05:47:44;9;9;
73631;PMS5003;61924;53.268;-2.458;2023-03-01T05:50:10;10;10;
73631;PMS5003;61924;53.268;-2.458;2023-03-01T05:52:34;12;10;
73631;PMS5003;61924;53.268;-2.458;2023-03-01T05:54:59;8;8;
73631;PMS5003;61924;53.268;-2.458;2023-03-01T05:57:24;7;7;
73631;PMS5003;61924;53.268;-2.458;2023-03-01T05:59:50;10;10;
73631;PMS5003;61924;53.268;-2.458;2023-03-01T06:02:15;8;7;
73631;PMS5003;61924;53.268;-2.458;2023-03-01T06:04:41;9;8;
73631;PMS5003;61924;53.268;-2.458;2023-03-01T06:07:06;10;10;
73631;PMS5003;61924;53.268;-2.458;2023-03-01T06:09:32;7;7;
73631;PMS5003;61924;53.268;-2.458;2023-03-01T06:11:57;10;9;
73631;PMS5003;61924;53.268;-2.458;2023-03-01T06:14:23;8;8;
73631;PMS5003;61924;53.268;-2.458;2023-03-01T06:16:48;9;8;
73631;PMS5003;61924;53.268;-2.458;2023-03-01T06:19:14;11;10;
73631;PMS5003;61924;53.268;-2.458;2023-03-01T06:21:40;8;7;
73631;PMS5003;61924;53.268;-2.458;2023-03-01T06:24:05;8;8;
73631;PMS5003;61924;53.268;-2.458;2023-03-01T06:26:30;6;6;
73631;PMS5003;61924;53.268;-2.458;2023-03-01T06:28:56;6;6;
73631;PMS5003;61924;53.268;-2.458;2023-03-01T06:31:21;10;10;
73631;PMS5003;61924;53.268;-2.458;2023-03-01T06:33:47;8;8;
73631;PMS5003;61924;53.268;-2.458;2023-03-01T06:36:12;6;5;
73631;PMS5003;61924;53.268;-2.458;2023-03-01T06:38:38;6;6;
73631;PMS5003;61924;53.268;-2.458;2023-03-01T06:41:04;7;7;
73631;PMS5003;61924;53.268;-2.458;2023-03-01T06:43:29;7;7;
73631;PMS5003;61924;53.268;-2.458;2023-03-01T06:45:55;8;8;
73631;PMS5003;61924;53.268;-2.458;2023-03-01T06:48:20;7;7;
73631;PMS5003;61924;53.268;-2.458;2023-03-01T06:50:46;5;5;
73631;PMS5003;61924;53.268;-2.458;2023-03-01T06:53:11;7;7;
73631;PMS5003;61924;53.268;-2.458;2023-03-01T06:55:36;6;6;
73631;PMS5003;61924;53.268;-2.458;2023-03-01T06:58:02;4;4;
73631;PMS5003;61924;53.268;-2.458;2023-03-01T07:00:27;7;6;
73631;PMS5003;61924;53.268;-2.458;2023-03-01T07:02:52;5;5;
73631;PMS5003;61924;53.268;-2.458;2023-03-01T07:05:17;6;6;
73631;PMS5003;61924;53.268;-2.458;2023-03-01T07:07:42;6;5;
73631;PMS5003;61924;53.268;-2.458;2023-03-01T07:10:09;6;5;
73631;PMS5003;61924;53.268;-2.458;2023-03-01T07:12:33;4;4;
73631;PMS5003;61924;53.268;-2.458;2023-03-01T07:14:59;6;5;
73631;PMS5003;61924;53.268;-2.458;2023-03-01T07:17:24;6;6;
73631;PMS5003;61924;53.268;-2.458;2023-03-01T07:19:49;6;5;
73631;PMS5003;61924;53.268;-2.458;2023-03-01T07:22:15;6;5;
73631;PMS5003;61924;53.268;-2.458;2023-03-01T07:24:40;5;4;
73631;PMS5003;61924;53.268;-2.458;2023-03-01T07:27:05;3;3;
73631;PMS5003;61924;53.268;-2.458;2023-03-01T07:29:31;5;5;
73631;PMS5003;61924;53.268;-2.458;2023-03-01T07:31:56;3;3;
73631;PMS5003;61924;53.268;-2.458;2023-03-01T07:34:22;6;5;
73631;PMS5003;61924;53.268;-2.458;2023-03-01T07:36:47;4;4;
73631;PMS5003;61924;53.268;-2.458;2023-03-01T07:39:13;3;3;
73631;PMS5003;61924;53.268;-2.458;2023-03-01T07:41:38;6;6;
73631;PMS5003;61924;53.268;-2.458;2023-03-01T07:44:04;4;4;
73631;PMS5003;61924;53.268;-2.458;2023-03-01T07:46:29;5;5;
73631;PMS5003;61924;53.268;-2.458;2023-03-01T07:48:55;2;2;
73631;PMS5003;61924;53.268;-2.458;2023-03-01T07:51:20;2;2;
73631;PMS5003;61924;53.268;-2.458;2023-03-01T07:53:46;5;4;
73631;PMS5003;61924;53.268;-2.458;2023-03-01T07:56:12;4;3;
73631;PMS5003;61924;53.268;-2.458;2023-03-01T07:58:38;3;3;
73631;PMS5003;61924;53.268;-2.458;2023-03-01T08:01:03;2;2;
73631;PMS5003;61924;53.268;-2.458;2023-03-01T08:03:29;3;3;
73631;PMS5003;61924;53.268;-2.458;2023-03-01T08:05:54;5;4;
73631;PMS5003;61924;53.268;-2.458;2023-03-01T08:08:20;1;1;
73631;PMS5003;61924;53.268;-2.458;2023-03-01T08:10:45;2;2;
73631;PMS5003;61924;53.268;-2.458;2023-03-01T08:13:11;3;3;
73631;PMS5003;61924;53.268;-2.458;2023-03-01T08:15:36;3;3;
73631;PMS5003;61924;53.268;-2.458;2023-03-01T08:18:02;4;4;
73631;PMS5003;61924;53.268;-2.458;2023-03-01T08:20:28;3;3;
73631;PMS5003;61924;53.268;-2.458;2023-03-01T08:22:53;5;5;
73631;PMS5003;61924;53.268;-2.458;2023-03-01T08:25:18;2;1;
73631;PMS5003;61924;53.268;-2.458;2023-03-01T08:27:43;3;3;
73631;PMS5003;61924;53.268;-2.458;2023-03-01T08:30:09;2;2;
73631;PMS5003;61924;53.268;-2.458;2023-03-01T08:32:36;2;2;
73631;PMS5003;61924;53.268;-2.458;2023-03-01T08:34:59;3;3;
73631;PMS5003;61924;53.268;-2.458;2023-03-01T08:37:25;3;3;
73631;PMS5003;61924;53.268;-2.458;2023-03-01T08:39:50;3;3;
73631;PMS5003;61924;53.268;-2.458;2023-03-01T08:42:16;4;4;
73631;PMS5003;61924;53.268;-2.458;2023-03-01T08:44:41;2;2;
73631;PMS5003;61924;53.268;-2.458;2023-03-01T08:47:07;4;4;
73631;PMS5003;61924;53.268;-2.458;2023-03-01T08:49:32;3;3;
73631;PMS5003;61924;53.268;-2.458;2023-03-01T08:51:57;2;2;
73631;PMS5003;61924;53.268;-2.458;2023-03-01T08:54:23;3;3;
73631;PMS5003;61924;53.268;-2.458;2023-03-01T08:56:48;1;1;
73631;PMS5003;61924;53.268;-2.458;2023-03-01T08:59:14;2;2;
73631;PMS5003;61924;53.268;-2.458;2023-03-01T09:01:39;2;2;
73631;PMS5003;61924;53.268;-2.458;2023-03-01T09:04:04;2;2;
73631;PMS5003;61924;53.268;-2.458;2023-03-01T09:06:30;1;1;
73631;PMS5003;61924;53.268;-2.458;2023-03-01T09:08:55;3;3;
73631;PMS5003;61924;53.268;-2.458;2023-03-01T09:11:21;2;2;
73631;PMS5003;61924;53.268;-2.458;2023-03-01T09:13:47;2;2;
73631;PMS5003;61924;53.268;-2.458;2023-03-01T09:16:13;3;3;
73631;PMS5003;61924;53.268;-2.458;2023-03-01T09:18:37;3;3;
73631;PMS5003;61924;53.268;-2.458;2023-03-01T09:21:03;2;2;
73631;PMS5003;61924;53.268;-2.458;2023-03-01T09:23:28;2;2;
73631;PMS5003;61924;53.268;-2.458;2023-03-01T09:25:54;3;3;
73631;PMS5003;61924;53.268;-2.458;2023-03-01T09:28:19;2;2;
73631;PMS5003;61924;53.268;-2.458;2023-03-01T09:30:44;2;2;
73631;PMS5003;61924;53.268;-2.458;2023-03-01T09:33:10;4;4;
73631;PMS5003;61924;53.268;-2.458;2023-03-01T09:35:35;2;2;
73631;PMS5003;61924;53.268;-2.458;2023-03-01T09:38:00;2;2;
73631;PMS5003;61924;53.268;-2.458;2023-03-01T09:40:26;2;2;
73631;PMS5003;61924;53.268;-2.458;2023-03-01T09:42:52;3;3;
73631;PMS5003;61924;53.268;-2.458;2023-03-01T09:45:21;2;2;
73631;PMS5003;61924;53.268;-2.458;2023-03-01T09:47:41;1;1;
73631;PMS5003;61924;53.268;-2.458;2023-03-01T09:50:10;2;2;
73631;PMS5003;61924;53.268;-2.458;2023-03-01T09:52:34;2;2;
73631;PMS5003;61924;53.268;-2.458;2023-03-01T09:54:58;3;3;
73631;PMS5003;61924;53.268;-2.458;2023-03-01T09:57:26;2;2;
73631;PMS5003;61924;53.268;-2.458;2023-03-01T09:59:52;0;0;
73631;PMS5003;61924;53.268;-2.458;2023-03-01T10:02:21;1;1;
73631;PMS5003;61924;53.268;-2.458;2023-03-01T10:04:42;3;2;
73631;PMS5003;61924;53.268;-2.458;2023-03-01T10:07:07;3;3;
73631;PMS5003;61924;53.268;-2.458;2023-03-01T10:09:30;2;2;
73631;PMS5003;61924;53.268;-2.458;2023-03-01T10:11:55;2;2;
73631;PMS5003;61924;53.268;-2.458;2023-03-01T10:14:26;1;1;
73631;PMS5003;61924;53.268;-2.458;2023-03-01T10:16:48;1;1;
73631;PMS5003;61924;53.268;-2.458;2023-03-01T10:19:15;1;1;
73631;PMS5003;61924;53.268;-2.458;2023-03-01T10:21:40;3;2;
73631;PMS5003;61924;53.268;-2.458;2023-03-01T10:24:08;2;2;
73631;PMS5003;61924;53.268;-2.458;2023-03-01T10:26:34;2;2;
73631;PMS5003;61924;53.268;-2.458;2023-03-01T10:28:58;2;2;
73631;PMS5003;61924;53.268;-2.458;2023-03-01T10:31:20;2;2;
73631;PMS5003;61924;53.268;-2.458;2023-03-01T10:33:45;2;2;
73631;PMS5003;61924;53.268;-2.458;2023-03-01T10:36:10;1;1;
73631;PMS5003;61924;53.268;-2.458;2023-03-01T10:38:47;2;2;
73631;PMS5003;61924;53.268;-2.458;2023-03-01T10:41:04;1;1;
73631;PMS5003;61924;53.268;-2.458;2023-03-01T10:43:27;1;1;
73631;PMS5003;61924;53.268;-2.458;2023-03-01T10:45:52;2;2;
73631;PMS5003;61924;53.268;-2.458;2023-03-01T10:48:18;2;2;
73631;PMS5003;61924;53.268;-2.458;2023-03-01T10:50:44;2;2;
73631;PMS5003;61924;53.268;-2.458;2023-03-01T10:53:18;1;1;
73631;PMS5003;61924;53.268;-2.458;2023-03-01T10:55:35;2;1;
73631;PMS5003;61924;53.268;-2.458;2023-03-01T10:58:09;1;1;
73631;PMS5003;61924;53.268;-2.458;2023-03-01T11:00:25;0;0;
73631;PMS5003;61924;53.268;-2.458;2023-03-01T11:03:01;2;2;
73631;PMS5003;61924;53.268;-2.458;2023-03-01T11:05:17;2;2;
73631;PMS5003;61924;53.268;-2.458;2023-03-01T11:07:46;2;1;
73631;PMS5003;61924;53.268;-2.458;2023-03-01T11:10:11;1;1;
73631;PMS5003;61924;53.268;-2.458;2023-03-01T11:12:32;1;1;
73631;PMS5003;61924;53.268;-2.458;2023-03-01T11:14:58;2;2;
73631;PMS5003;61924;53.268;-2.458;2023-03-01T11:17:24;1;1;
73631;PMS5003;61924;53.268;-2.458;2023-03-01T11:19:59;1;1;
73631;PMS5003;61924;53.268;-2.458;2023-03-01T11:22:16;1;1;
73631;PMS5003;61924;53.268;-2.458;2023-03-01T11:24:40;0;0;
73631;PMS5003;61924;53.268;-2.458;2023-03-01T11:27:08;2;2;
73631;PMS5003;61924;53.268;-2.458;2023-03-01T11:29:33;1;1;
73631;PMS5003;61924;53.268;-2.458;2023-03-01T11:31:57;2;2;
73631;PMS5003;61924;53.268;-2.458;2023-03-01T11:34:23;2;2;
73631;PMS5003;61924;53.268;-2.458;2023-03-01T11:36:49;2;1;
73631;PMS5003;61924;53.268;-2.458;2023-03-01T11:39:17;1;1;
73631;PMS5003;61924;53.268;-2.458;2023-03-01T11:41:38;2;2;
73631;PMS5003;61924;53.268;-2.458;2023-03-01T11:44:03;0;0;
73631;PMS5003;61924;53.268;-2.458;2023-03-01T11:46:39;1;0;
73631;PMS5003;61924;53.268;-2.458;2023-03-01T11:48:56;2;2;
73631;PMS5003;61924;53.268;-2.458;2023-03-01T11:51:20;1;1;
73631;PMS5003;61924;53.268;-2.458;2023-03-01T11:53:49;1;1;
73631;PMS5003;61924;53.268;-2.458;2023-03-01T11:56:11;1;1;
73631;PMS5003;61924;53.268;-2.458;2023-03-01T11:58:40;1;1;
73631;PMS5003;61924;53.268;-2.458;2023-03-01T12:01:02;0;0;
73631;PMS5003;61924;53.268;-2.458;2023-03-01T12:03:27;1;1;
73631;PMS5003;61924;53.268;-2.458;2023-03-01T12:06:01;0;0;
73631;PMS5003;61924;53.268;-2.458;2023-03-01T12:08:16;1;1;
73631;PMS5003;61924;53.268;-2.458;2023-03-01T12:10:43;2;2;
73631;PMS5003;61924;53.268;-2.458;2023-03-01T12:13:11;1;1;
73631;PMS5003;61924;53.268;-2.458;2023-03-01T12:15:38;1;1;
73631;PMS5003;61924;53.268;-2.458;2023-03-01T12:17:59;1;0;
73631;PMS5003;61924;53.268;-2.458;2023-03-01T12:20:24;0;0;
73631;PMS5003;61924;53.268;-2.458;2023-03-01T12:22:53;1;1;
73631;PMS5003;61924;53.268;-2.458;2023-03-01T12:25:16;0;0;
73631;PMS5003;61924;53.268;-2.458;2023-03-01T12:29:50;1;1;
73631;PMS5003;61924;53.268;-2.458;2023-03-01T12:32:20;1;1;
73631;PMS5003;61924;53.268;-2.458;2023-03-01T12:34:44;0;0;
73631;PMS5003;61924;53.268;-2.458;2023-03-01T12:36:57;0;0;
73631;PMS5003;61924;53.268;-2.458;2023-03-01T12:39:25;1;1;
73631;PMS5003;61924;53.268;-2.458;2023-03-01T12:41:46;1;0;
73631;PMS5003;61924;53.268;-2.458;2023-03-01T12:44:12;1;1;
73631;PMS5003;61924;53.268;-2.458;2023-03-01T12:46:39;1;1;
73631;PMS5003;61924;53.268;-2.458;2023-03-01T12:49:04;1;1;
73631;PMS5003;61924;53.268;-2.458;2023-03-01T12:51:28;1;1;
73631;PMS5003;61924;53.268;-2.458;2023-03-01T12:53:53;2;2;
73631;PMS5003;61924;53.268;-2.458;2023-03-01T12:56:19;0;0;
73631;PMS5003;61924;53.268;-2.458;2023-03-01T12:58:46;1;1;
73631;PMS5003;61924;53.268;-2.458;2023-03-01T13:01:13;0;0;
73631;PMS5003;61924;53.268;-2.458;2023-03-01T13:03:38;1;1;
73631;PMS5003;61924;53.268;-2.458;2023-03-01T13:06:04;0;0;
73631;PMS5003;61924;53.268;-2.458;2023-03-01T13:08:26;0;0;
73631;PMS5003;61924;53.268;-2.458;2023-03-01T13:10:50;1;1;
73631;PMS5003;61924;53.268;-2.458;2023-03-01T13:13:19;2;2;
73631;PMS5003;61924;53.268;-2.458;2023-03-01T13:15:41;1;1;
73631;PMS5003;61924;53.268;-2.458;2023-03-01T13:18:27;0;0;
73631;PMS5003;61924;53.268;-2.458;2023-03-01T13:20:33;1;1;
73631;PMS5003;61924;53.268;-2.458;2023-03-01T13:23:03;1;1;
73631;PMS5003;61924;53.268;-2.458;2023-03-01T13:25:23;1;1;
73631;PMS5003;61924;53.268;-2.458;2023-03-01T13:27:49;0;0;
73631;PMS5003;61924;53.268;-2.458;2023-03-01T13:30:38;1;1;
73631;PMS5003;61924;53.268;-2.458;2023-03-01T13:32:39;1;1;
73631;PMS5003;61924;53.268;-2.458;2023-03-01T13:35:08;0;0;
73631;PMS5003;61924;53.268;-2.458;2023-03-01T13:37:31;1;1;
73631;PMS5003;61924;53.268;-2.458;2023-03-01T13:39:56;1;1;
73631;PMS5003;61924;53.268;-2.458;2023-03-01T13:42:37;0;0;
73631;PMS5003;61924;53.268;-2.458;2023-03-01T13:44:46;1;1;
73631;PMS5003;61924;53.268;-2.458;2023-03-01T13:47:14;0;0;
73631;PMS5003;61924;53.268;-2.458;2023-03-01T13:49:41;1;1;
73631;PMS5003;61924;53.268;-2.458;2023-03-01T13:52:02;1;1;
73631;PMS5003;61924;53.268;-2.458;2023-03-01T13:54:29;1;1;
73631;PMS5003;61924;53.268;-2.458;2023-03-01T13:56:53;0;0;
73631;PMS5003;61924;53.268;-2.458;2023-03-01T13:59:19;0;0;
73631;PMS5003;61924;53.268;-2.458;2023-03-01T14:01:43;0;0;
73631;PMS5003;61924;53.268;-2.458;2023-03-01T14:04:18;0;0;
73631;PMS5003;61924;53.268;-2.458;2023-03-01T14:06:34;0;0;
73631;PMS5003;61924;53.268;-2.458;2023-03-01T14:09:02;0;0;
73631;PMS5003;61924;53.268;-2.458;2023-03-01T14:11:31;1;1;
73631;PMS5003;61924;53.268;-2.458;2023-03-01T14:13:54;1;1;
73631;PMS5003;61924;53.268;-2.458;2023-03-01T14:16:19;0;0;
73631;PMS5003;61924;53.268;-2.458;2023-03-01T14:18:42;0;0;
73631;PMS5003;61924;53.268;-2.458;2023-03-01T14:21:07;1;1;
73631;PMS5003;61924;53.268;-2.458;2023-03-01T14:23:31;1;1;
73631;PMS5003;61924;53.268;-2.458;2023-03-01T14:25:57;1;1;
73631;PMS5003;61924;53.268;-2.458;2023-03-01T14:28:23;0;0;
73631;PMS5003;61924;53.268;-2.458;2023-03-01T14:30:47;0;0;
73631;PMS5003;61924;53.268;-2.458;2023-03-01T14:33:20;0;0;
73631;PMS5003;61924;53.268;-2.458;2023-03-01T14:35:37;0;0;
73631;PMS5003;61924;53.268;-2.458;2023-03-01T14:38:03;0;0;
73631;PMS5003;61924;53.268;-2.458;2023-03-01T14:40:28;1;1;
73631;PMS5003;61924;53.268;-2.458;2023-03-01T14:42:54;0;0;
73631;PMS5003;61924;53.268;-2.458;2023-03-01T14:45:19;0;0;
73631;PMS5003;61924;53.268;-2.458;2023-03-01T14:47:45;1;1;
73631;PMS5003;61924;53.268;-2.458;2023-03-01T14:50:15;1;1;
73631;PMS5003;61924;53.268;-2.458;2023-03-01T14:52:36;1;1;
73631;PMS5003;61924;53.268;-2.458;2023-03-01T14:55:01;0;0;
73631;PMS5003;61924;53.268;-2.458;2023-03-01T14:57:26;0;0;
73631;PMS5003;61924;53.268;-2.458;2023-03-01T14:59:53;0;0;
73631;PMS5003;61924;53.268;-2.458;2023-03-01T15:02:18;0;0;
73631;PMS5003;61924;53.268;-2.458;2023-03-01T15:04:43;1;1;
73631;PMS5003;61924;53.268;-2.458;2023-03-01T15:07:09;0;0;
73631;PMS5003;61924;53.268;-2.458;2023-03-01T15:09:33;0;0;
73631;PMS5003;61924;53.268;-2.458;2023-03-01T15:11:58;0;0;
73631;PMS5003;61924;53.268;-2.458;2023-03-01T15:14:26;1;1;
73631;PMS5003;61924;53.268;-2.458;2023-03-01T15:16:49;0;0;
73631;PMS5003;61924;53.268;-2.458;2023-03-01T15:19:15;0;0;
73631;PMS5003;61924;53.268;-2.458;2023-03-01T15:21:40;0;0;
73631;PMS5003;61924;53.268;-2.458;2023-03-01T15:24:06;0;0;
73631;PMS5003;61924;53.268;-2.458;2023-03-01T15:26:32;0;0;
73631;PMS5003;61924;53.268;-2.458;2023-03-01T15:28:58;0;0;
73631;PMS5003;61924;53.268;-2.458;2023-03-01T15:31:23;0;0;
73631;PMS5003;61924;53.268;-2.458;2023-03-01T15:33:48;0;0;
73631;PMS5003;61924;53.268;-2.458;2023-03-01T15:36:30;2;0;
73631;PMS5003;61924;53.268;-2.458;2023-03-01T15:38:50;1;1;
73631;PMS5003;61924;53.268;-2.458;2023-03-01T15:41:05;0;0;
73631;PMS5003;61924;53.268;-2.458;2023-03-01T15:43:37;0;0;
73631;PMS5003;61924;53.268;-2.458;2023-03-01T15:45:55;1;1;
73631;PMS5003;61924;53.268;-2.458;2023-03-01T15:48:20;0;0;
73631;PMS5003;61924;53.268;-2.458;2023-03-01T15:50:53;0;0;
73631;PMS5003;61924;53.268;-2.458;2023-03-01T15:53:12;0;0;
73631;PMS5003;61924;53.268;-2.458;2023-03-01T15:55:37;0;0;
73631;PMS5003;61924;53.268;-2.458;2023-03-01T15:58:03;0;0;
73631;PMS5003;61924;53.268;-2.458;2023-03-01T16:00:27;0;0;
73631;PMS5003;61924;53.268;-2.458;2023-03-01T16:02:52;0;0;
73631;PMS5003;61924;53.268;-2.458;2023-03-01T16:05:19;0;0;
73631;PMS5003;61924;53.268;-2.458;2023-03-01T16:07:43;0;0;
73631;PMS5003;61924;53.268;-2.458;2023-03-01T16:10:08;1;1;
73631;PMS5003;61924;53.268;-2.458;2023-03-01T16:12:34;0;0;
73631;PMS5003;61924;53.268;-2.458;2023-03-01T16:14:59;0;0;
73631;PMS5003;61924;53.268;-2.458;2023-03-01T16:17:24;0;0;